sensor_id;sensor_type;location;lat;lon;timestamp;P1;durP1;ratioP1;P2;durP2;ratioP2
54561;SDS011;40456;53.358;-1.486;2022-12-07T00:01:07;1.70;;;0.68;;
54561;SDS011;40456;53.358;-1.486;2022-12-07T00:03:35;0.77;;;0.50;;
54561;SDS011;40456;53.358;-1.486;2022-12-07T00:06:01;2.10;;;0.77;;
54561;SDS011;40456;53.358;-1.486;2022-12-07T00:08:27;1.25;;;0.60;;
54561;SDS011;40456;53.358;-1.486;2022-12-07T00:10:53;3.28;;;0.75;;
54561;SDS011;40456;53.358;-1.486;2022-12-07T00:13:19;2.58;;;0.57;;
54561;SDS011;40456;53.358;-1.486;2022-12-07T00:15:44;2.15;;;0.57;;
54561;SDS011;40456;53.358;-1.486;2022-12-07T00:18:09;1.98;;;0.75;;
54561;SDS011;40456;53.358;-1.486;2022-12-07T00:20:35;1.25;;;0.50;;
54561;SDS011;40456;53.358;-1.486;2022-12-07T00:23:00;2.83;;;0.73;;
54561;SDS011;40456;53.358;-1.486;2022-12-07T00:25:25;1.10;;;0.50;;
54561;SDS011;40456;53.358;-1.486;2022-12-07T00:27:54;3.63;;;0.70;;
54561;SDS011;40456;53.358;-1.486;2022-12-07T00:30:21;3.55;;;0.70;;
54561;SDS011;40456;53.358;-1.486;2022-12-07T00:32:47;2.78;;;0.93;;
54561;SDS011;40456;53.358;-1.486;2022-12-07T00:35:13;2.50;;;0.55;;
54561;SDS011;40456;53.358;-1.486;2022-12-07T00:37:39;3.33;;;0.60;;
54561;SDS011;40456;53.358;-1.486;2022-12-07T00:40:04;2.97;;;0.82;;
54561;SDS011;40456;53.358;-1.486;2022-12-07T00:42:30;1.70;;;0.70;;
54561;SDS011;40456;53.358;-1.486;2022-12-07T00:44:56;3.60;;;0.63;;
54561;SDS011;40456;53.358;-1.486;2022-12-07T00:47:21;1.77;;;0.50;;
54561;SDS011;40456;53.358;-1.486;2022-12-07T00:49:46;1.30;;;0.60;;
54561;SDS011;40456;53.358;-1.486;2022-12-07T00:52:12;2.42;;;0.55;;
54561;SDS011;40456;53.358;-1.486;2022-12-07T00:54:37;2.42;;;0.47;;
54561;SDS011;40456;53.358;-1.486;2022-12-07T00:57:03;1.70;;;0.50;;
54561;SDS011;40456;53.358;-1.486;2022-12-07T00:59:28;1.33;;;0.50;;
54561;SDS011;40456;53.358;-1.486;2022-12-07T01:01:54;1.27;;;0.60;;
54561;SDS011;40456;53.358;-1.486;2022-12-07T01:04:19;1.50;;;0.50;;
54561;SDS011;40456;53.358;-1.486;2022-12-07T01:06:45;0.80;;;0.40;;
54561;SDS011;40456;53.358;-1.486;2022-12-07T01:09:10;0.98;;;0.57;;
54561;SDS011;40456;53.358;-1.486;2022-12-07T01:11:35;0.93;;;0.43;;
54561;SDS011;40456;53.358;-1.486;2022-12-07T01:14:01;1.20;;;0.40;;
54561;SDS011;40456;53.358;-1.486;2022-12-07T01:16:28;1.70;;;0.40;;
54561;SDS011;40456;53.358;-1.486;2022-12-07T01:18:55;1.02;;;0.50;;
54561;SDS011;40456;53.358;-1.486;2022-12-07T01:21:22;0.95;;;0.70;;
54561;SDS011;40456;53.358;-1.486;2022-12-07T01:23:49;2.15;;;0.65;;
54561;SDS011;40456;53.358;-1.486;2022-12-07T01:26:17;2.35;;;0.50;;
54561;SDS011;40456;53.358;-1.486;2022-12-07T01:28:44;0.73;;;0.30;;
54561;SDS011;40456;53.358;-1.486;2022-12-07T01:31:11;2.55;;;0.50;;
54561;SDS011;40456;53.358;-1.486;2022-12-07T01:33:39;1.08;;;0.40;;
54561;SDS011;40456;53.358;-1.486;2022-12-07T01:36:06;3.33;;;0.70;;
54561;SDS011;40456;53.358;-1.486;2022-12-07T01:38:35;1.58;;;0.40;;
54561;SDS011;40456;53.358;-1.486;2022-12-07T01:41:05;0.85;;;0.50;;
54561;SDS011;40456;53.358;-1.486;2022-12-07T01:43:31;1.92;;;0.52;;
54561;SDS011;40456;53.358;-1.486;2022-12-07T01:45:58;1.98;;;0.68;;
54561;SDS011;40456;53.358;-1.486;2022-12-07T01:48:39;2.80;;;0.70;;
54561;SDS011;40456;53.358;-1.486;2022-12-07T01:51:10;1.00;;;0.45;;
54561;SDS011;40456;53.358;-1.486;2022-12-07T01:53:38;1.10;;;0.50;;
54561;SDS011;40456;53.358;-1.486;2022-12-07T01:56:05;2.17;;;0.93;;
54561;SDS011;40456;53.358;-1.486;2022-12-07T01:58:33;2.50;;;0.40;;
54561;SDS011;40456;53.358;-1.486;2022-12-07T02:00:58;0.50;;;0.40;;
54561;SDS011;40456;53.358;-1.486;2022-12-07T02:03:25;0.95;;;0.45;;
54561;SDS011;40456;53.358;-1.486;2022-12-07T02:05:54;0.82;;;0.60;;
54561;SDS011;40456;53.358;-1.486;2022-12-07T02:08:20;1.55;;;0.55;;
54561;SDS011;40456;53.358;-1.486;2022-12-07T02:10:45;2.40;;;0.60;;
54561;SDS011;40456;53.358;-1.486;2022-12-07T02:13:15;0.50;;;0.40;;
54561;SDS011;40456;53.358;-1.486;2022-12-07T02:18:40;0.75;;;0.40;;
54561;SDS011;40456;53.358;-1.486;2022-12-07T02:24:10;3.35;;;0.40;;
54561;SDS011;40456;53.358;-1.486;2022-12-07T02:34:44;1.65;;;0.57;;
54561;SDS011;40456;53.358;-1.486;2022-12-07T02:37:27;1.80;;;0.52;;
54561;SDS011;40456;53.358;-1.486;2022-12-07T02:39:59;2.40;;;0.47;;
54561;SDS011;40456;53.358;-1.486;2022-12-07T02:42:40;0.30;;;0.20;;
54561;SDS011;40456;53.358;-1.486;2022-12-07T02:45:09;3.50;;;0.85;;
54561;SDS011;40456;53.358;-1.486;2022-12-07T02:47:36;2.58;;;0.85;;
54561;SDS011;40456;53.358;-1.486;2022-12-07T02:50:03;1.77;;;0.30;;
54561;SDS011;40456;53.358;-1.486;2022-12-07T02:52:30;1.40;;;0.63;;
54561;SDS011;40456;53.358;-1.486;2022-12-07T02:54:55;1.33;;;0.30;;
54561;SDS011;40456;53.358;-1.486;2022-12-07T03:07:59;4.68;;;0.65;;
54561;SDS011;40456;53.358;-1.486;2022-12-07T03:16:02;1.17;;;0.32;;
54561;SDS011;40456;53.358;-1.486;2022-12-07T03:18:35;2.72;;;0.50;;
54561;SDS011;40456;53.358;-1.486;2022-12-07T03:21:03;1.10;;;0.30;;
54561;SDS011;40456;53.358;-1.486;2022-12-07T03:23:32;1.02;;;0.43;;
54561;SDS011;40456;53.358;-1.486;2022-12-07T03:25:58;2.47;;;0.75;;
54561;SDS011;40456;53.358;-1.486;2022-12-07T03:28:26;2.25;;;0.30;;
54561;SDS011;40456;53.358;-1.486;2022-12-07T03:30:57;0.57;;;0.20;;
54561;SDS011;40456;53.358;-1.486;2022-12-07T03:33:29;1.60;;;0.90;;
54561;SDS011;40456;53.358;-1.486;2022-12-07T03:36:00;2.15;;;0.47;;
54561;SDS011;40456;53.358;-1.486;2022-12-07T03:38:42;1.05;;;0.40;;
54561;SDS011;40456;53.358;-1.486;2022-12-07T03:41:16;1.95;;;0.47;;
54561;SDS011;40456;53.358;-1.486;2022-12-07T03:43:47;2.58;;;0.60;;
54561;SDS011;40456;53.358;-1.486;2022-12-07T03:54:13;1.20;;;0.50;;
54561;SDS011;40456;53.358;-1.486;2022-12-07T03:56:41;0.50;;;0.50;;
54561;SDS011;40456;53.358;-1.486;2022-12-07T03:59:07;1.58;;;0.40;;
54561;SDS011;40456;53.358;-1.486;2022-12-07T04:01:33;0.70;;;0.40;;
54561;SDS011;40456;53.358;-1.486;2022-12-07T04:03:58;0.95;;;0.30;;
54561;SDS011;40456;53.358;-1.486;2022-12-07T04:06:24;1.83;;;0.30;;
54561;SDS011;40456;53.358;-1.486;2022-12-07T04:08:49;0.40;;;0.20;;
54561;SDS011;40456;53.358;-1.486;2022-12-07T04:11:14;1.10;;;0.40;;
54561;SDS011;40456;53.358;-1.486;2022-12-07T04:13:40;1.15;;;0.20;;
54561;SDS011;40456;53.358;-1.486;2022-12-07T04:16:24;1.83;;;0.50;;
54561;SDS011;40456;53.358;-1.486;2022-12-07T04:18:49;0.85;;;0.40;;
54561;SDS011;40456;53.358;-1.486;2022-12-07T04:21:14;1.27;;;0.30;;
54561;SDS011;40456;53.358;-1.486;2022-12-07T04:23:40;0.40;;;0.30;;
54561;SDS011;40456;53.358;-1.486;2022-12-07T04:26:05;1.55;;;0.30;;
54561;SDS011;40456;53.358;-1.486;2022-12-07T04:28:31;0.55;;;0.30;;
54561;SDS011;40456;53.358;-1.486;2022-12-07T04:30:56;0.40;;;0.22;;
54561;SDS011;40456;53.358;-1.486;2022-12-07T04:33:21;1.58;;;0.50;;
54561;SDS011;40456;53.358;-1.486;2022-12-07T04:35:47;2.38;;;0.50;;
54561;SDS011;40456;53.358;-1.486;2022-12-07T04:38:12;0.98;;;0.45;;
54561;SDS011;40456;53.358;-1.486;2022-12-07T04:40:37;0.50;;;0.40;;
54561;SDS011;40456;53.358;-1.486;2022-12-07T04:43:03;3.05;;;0.73;;
54561;SDS011;40456;53.358;-1.486;2022-12-07T04:45:29;1.67;;;0.50;;
54561;SDS011;40456;53.358;-1.486;2022-12-07T04:47:55;1.33;;;0.50;;
54561;SDS011;40456;53.358;-1.486;2022-12-07T04:50:20;0.70;;;0.38;;
54561;SDS011;40456;53.358;-1.486;2022-12-07T04:52:46;0.80;;;0.40;;
54561;SDS011;40456;53.358;-1.486;2022-12-07T04:55:11;0.40;;;0.40;;
54561;SDS011;40456;53.358;-1.486;2022-12-07T04:57:36;1.83;;;0.50;;
54561;SDS011;40456;53.358;-1.486;2022-12-07T05:00:02;1.45;;;0.40;;
54561;SDS011;40456;53.358;-1.486;2022-12-07T05:02:28;0.47;;;0.30;;
54561;SDS011;40456;53.358;-1.486;2022-12-07T05:04:53;1.95;;;0.50;;
54561;SDS011;40456;53.358;-1.486;2022-12-07T05:07:18;0.70;;;0.40;;
54561;SDS011;40456;53.358;-1.486;2022-12-07T05:09:44;1.50;;;0.57;;
54561;SDS011;40456;53.358;-1.486;2022-12-07T05:12:09;1.58;;;0.43;;
54561;SDS011;40456;53.358;-1.486;2022-12-07T05:14:34;0.55;;;0.30;;
54561;SDS011;40456;53.358;-1.486;2022-12-07T05:17:00;1.08;;;0.40;;
54561;SDS011;40456;53.358;-1.486;2022-12-07T05:19:25;0.43;;;0.30;;
54561;SDS011;40456;53.358;-1.486;2022-12-07T05:21:51;0.65;;;0.40;;
54561;SDS011;40456;53.358;-1.486;2022-12-07T05:24:17;1.42;;;0.30;;
54561;SDS011;40456;53.358;-1.486;2022-12-07T05:26:42;1.63;;;0.73;;
54561;SDS011;40456;53.358;-1.486;2022-12-07T05:29:10;1.70;;;0.30;;
54561;SDS011;40456;53.358;-1.486;2022-12-07T05:31:37;1.20;;;0.40;;
54561;SDS011;40456;53.358;-1.486;2022-12-07T05:34:02;1.98;;;0.50;;
54561;SDS011;40456;53.358;-1.486;2022-12-07T05:36:28;1.10;;;0.40;;
54561;SDS011;40456;53.358;-1.486;2022-12-07T05:38:56;0.40;;;0.20;;
54561;SDS011;40456;53.358;-1.486;2022-12-07T05:41:21;0.90;;;0.32;;
54561;SDS011;40456;53.358;-1.486;2022-12-07T05:44:05;0.30;;;0.30;;
54561;SDS011;40456;53.358;-1.486;2022-12-07T05:46:31;1.55;;;0.40;;
54561;SDS011;40456;53.358;-1.486;2022-12-07T05:48:56;1.98;;;0.30;;
54561;SDS011;40456;53.358;-1.486;2022-12-07T05:51:22;1.10;;;0.50;;
54561;SDS011;40456;53.358;-1.486;2022-12-07T05:53:47;0.95;;;0.47;;
54561;SDS011;40456;53.358;-1.486;2022-12-07T05:56:13;0.60;;;0.30;;
54561;SDS011;40456;53.358;-1.486;2022-12-07T05:58:39;1.73;;;0.52;;
54561;SDS011;40456;53.358;-1.486;2022-12-07T06:01:23;1.10;;;0.30;;
54561;SDS011;40456;53.358;-1.486;2022-12-07T06:03:49;0.90;;;0.40;;
54561;SDS011;40456;53.358;-1.486;2022-12-07T06:06:14;2.70;;;0.35;;
54561;SDS011;40456;53.358;-1.486;2022-12-07T06:08:40;0.40;;;0.30;;
54561;SDS011;40456;53.358;-1.486;2022-12-07T06:11:05;2.90;;;0.40;;
54561;SDS011;40456;53.358;-1.486;2022-12-07T06:13:49;1.27;;;0.30;;
54561;SDS011;40456;53.358;-1.486;2022-12-07T06:16:15;1.38;;;0.30;;
54561;SDS011;40456;53.358;-1.486;2022-12-07T06:18:40;1.27;;;0.32;;
54561;SDS011;40456;53.358;-1.486;2022-12-07T06:21:05;1.33;;;0.32;;
54561;SDS011;40456;53.358;-1.486;2022-12-07T06:23:31;1.25;;;0.25;;
54561;SDS011;40456;53.358;-1.486;2022-12-07T06:25:56;0.80;;;0.30;;
54561;SDS011;40456;53.358;-1.486;2022-12-07T06:28:21;0.70;;;0.40;;
54561;SDS011;40456;53.358;-1.486;2022-12-07T06:30:47;1.27;;;0.45;;
54561;SDS011;40456;53.358;-1.486;2022-12-07T06:33:12;0.82;;;0.60;;
54561;SDS011;40456;53.358;-1.486;2022-12-07T06:35:37;1.35;;;0.47;;
54561;SDS011;40456;53.358;-1.486;2022-12-07T06:38:03;1.63;;;0.77;;
54561;SDS011;40456;53.358;-1.486;2022-12-07T06:40:28;3.03;;;0.73;;
54561;SDS011;40456;53.358;-1.486;2022-12-07T06:42:54;2.17;;;0.60;;
54561;SDS011;40456;53.358;-1.486;2022-12-07T06:45:21;1.67;;;0.77;;
54561;SDS011;40456;53.358;-1.486;2022-12-07T06:47:46;0.57;;;0.52;;
54561;SDS011;40456;53.358;-1.486;2022-12-07T06:50:11;2.08;;;0.77;;
54561;SDS011;40456;53.358;-1.486;2022-12-07T06:52:37;1.13;;;0.60;;
54561;SDS011;40456;53.358;-1.486;2022-12-07T06:55:02;2.25;;;0.70;;
54561;SDS011;40456;53.358;-1.486;2022-12-07T06:57:28;2.25;;;0.77;;
54561;SDS011;40456;53.358;-1.486;2022-12-07T06:59:53;2.53;;;0.55;;
54561;SDS011;40456;53.358;-1.486;2022-12-07T07:02:19;2.03;;;0.73;;
54561;SDS011;40456;53.358;-1.486;2022-12-07T07:04:44;0.85;;;0.70;;
54561;SDS011;40456;53.358;-1.486;2022-12-07T07:07:09;1.10;;;0.52;;
54561;SDS011;40456;53.358;-1.486;2022-12-07T07:09:35;1.08;;;0.60;;
54561;SDS011;40456;53.358;-1.486;2022-12-07T07:12:00;1.35;;;0.57;;
54561;SDS011;40456;53.358;-1.486;2022-12-07T07:14:27;0.82;;;0.60;;
54561;SDS011;40456;53.358;-1.486;2022-12-07T07:16:52;0.43;;;0.40;;
54561;SDS011;40456;53.358;-1.486;2022-12-07T07:19:18;1.70;;;0.40;;
54561;SDS011;40456;53.358;-1.486;2022-12-07T07:21:43;1.70;;;1.05;;
54561;SDS011;40456;53.358;-1.486;2022-12-07T07:24:09;1.65;;;0.70;;
54561;SDS011;40456;53.358;-1.486;2022-12-07T07:26:35;2.72;;;1.00;;
54561;SDS011;40456;53.358;-1.486;2022-12-07T07:29:00;2.45;;;0.90;;
54561;SDS011;40456;53.358;-1.486;2022-12-07T07:31:25;1.08;;;0.65;;
54561;SDS011;40456;53.358;-1.486;2022-12-07T07:33:51;2.92;;;1.15;;
54561;SDS011;40456;53.358;-1.486;2022-12-07T07:36:16;2.50;;;0.80;;
54561;SDS011;40456;53.358;-1.486;2022-12-07T07:38:42;2.33;;;1.05;;
54561;SDS011;40456;53.358;-1.486;2022-12-07T07:41:07;1.48;;;0.90;;
54561;SDS011;40456;53.358;-1.486;2022-12-07T07:43:33;2.00;;;0.90;;
54561;SDS011;40456;53.358;-1.486;2022-12-07T07:45:58;2.10;;;1.10;;
54561;SDS011;40456;53.358;-1.486;2022-12-07T07:48:23;2.40;;;1.10;;
54561;SDS011;40456;53.358;-1.486;2022-12-07T07:50:50;2.92;;;0.85;;
54561;SDS011;40456;53.358;-1.486;2022-12-07T07:53:15;1.80;;;0.77;;
54561;SDS011;40456;53.358;-1.486;2022-12-07T07:55:41;2.38;;;1.30;;
54561;SDS011;40456;53.358;-1.486;2022-12-07T07:58:06;1.35;;;0.93;;
54561;SDS011;40456;53.358;-1.486;2022-12-07T08:01:05;2.38;;;1.13;;
54561;SDS011;40456;53.358;-1.486;2022-12-07T08:03:31;2.05;;;0.90;;
54561;SDS011;40456;53.358;-1.486;2022-12-07T08:05:56;2.75;;;0.90;;
54561;SDS011;40456;53.358;-1.486;2022-12-07T08:08:22;2.05;;;0.82;;
54561;SDS011;40456;53.358;-1.486;2022-12-07T08:10:47;1.13;;;0.88;;
54561;SDS011;40456;53.358;-1.486;2022-12-07T08:13:14;1.73;;;0.93;;
54561;SDS011;40456;53.358;-1.486;2022-12-07T08:15:41;0.75;;;0.60;;
54561;SDS011;40456;53.358;-1.486;2022-12-07T08:18:08;0.88;;;0.68;;
54561;SDS011;40456;53.358;-1.486;2022-12-07T08:20:34;0.63;;;0.52;;
54561;SDS011;40456;53.358;-1.486;2022-12-07T08:23:00;1.20;;;0.75;;
54561;SDS011;40456;53.358;-1.486;2022-12-07T08:25:25;1.70;;;0.80;;
54561;SDS011;40456;53.358;-1.486;2022-12-07T08:27:51;3.80;;;0.80;;
54561;SDS011;40456;53.358;-1.486;2022-12-07T08:30:17;1.27;;;0.82;;
54561;SDS011;40456;53.358;-1.486;2022-12-07T08:32:46;3.03;;;0.75;;
54561;SDS011;40456;53.358;-1.486;2022-12-07T08:35:12;1.40;;;0.68;;
54561;SDS011;40456;53.358;-1.486;2022-12-07T08:37:38;2.22;;;1.08;;
54561;SDS011;40456;53.358;-1.486;2022-12-07T08:40:04;3.97;;;1.02;;
54561;SDS011;40456;53.358;-1.486;2022-12-07T08:42:30;1.58;;;0.95;;
54561;SDS011;40456;53.358;-1.486;2022-12-07T08:45:03;1.88;;;0.98;;
54561;SDS011;40456;53.358;-1.486;2022-12-07T08:47:30;1.42;;;1.20;;
54561;SDS011;40456;53.358;-1.486;2022-12-07T08:49:55;2.63;;;1.20;;
54561;SDS011;40456;53.358;-1.486;2022-12-07T08:52:21;0.70;;;0.50;;
54561;SDS011;40456;53.358;-1.486;2022-12-07T08:54:46;1.25;;;0.80;;
54561;SDS011;40456;53.358;-1.486;2022-12-07T08:57:12;1.02;;;0.60;;
54561;SDS011;40456;53.358;-1.486;2022-12-07T08:59:37;1.42;;;0.63;;
54561;SDS011;40456;53.358;-1.486;2022-12-07T09:02:03;1.55;;;0.60;;
54561;SDS011;40456;53.358;-1.486;2022-12-07T09:04:29;1.55;;;1.00;;
54561;SDS011;40456;53.358;-1.486;2022-12-07T09:06:55;1.83;;;0.85;;
54561;SDS011;40456;53.358;-1.486;2022-12-07T09:09:20;2.40;;;0.70;;
54561;SDS011;40456;53.358;-1.486;2022-12-07T09:11:46;2.63;;;0.77;;
54561;SDS011;40456;53.358;-1.486;2022-12-07T09:14:11;1.35;;;0.90;;
54561;SDS011;40456;53.358;-1.486;2022-12-07T09:16:37;2.92;;;0.85;;
54561;SDS011;40456;53.358;-1.486;2022-12-07T09:19:03;2.72;;;1.08;;
54561;SDS011;40456;53.358;-1.486;2022-12-07T09:21:28;1.95;;;0.80;;
54561;SDS011;40456;53.358;-1.486;2022-12-07T09:23:54;1.23;;;0.90;;
54561;SDS011;40456;53.358;-1.486;2022-12-07T09:26:19;0.63;;;0.50;;
54561;SDS011;40456;53.358;-1.486;2022-12-07T09:28:45;2.33;;;0.60;;
54561;SDS011;40456;53.358;-1.486;2022-12-07T09:31:10;2.08;;;0.88;;
54561;SDS011;40456;53.358;-1.486;2022-12-07T09:33:35;2.08;;;1.15;;
54561;SDS011;40456;53.358;-1.486;2022-12-07T09:36:01;3.35;;;1.17;;
54561;SDS011;40456;53.358;-1.486;2022-12-07T09:38:28;0.77;;;0.65;;
54561;SDS011;40456;53.358;-1.486;2022-12-07T09:40:54;1.20;;;0.70;;
54561;SDS011;40456;53.358;-1.486;2022-12-07T09:43:21;1.27;;;0.70;;
54561;SDS011;40456;53.358;-1.486;2022-12-07T09:45:50;1.95;;;0.82;;
54561;SDS011;40456;53.358;-1.486;2022-12-07T09:48:19;2.13;;;0.70;;
54561;SDS011;40456;53.358;-1.486;2022-12-07T09:50:46;0.80;;;0.60;;
54561;SDS011;40456;53.358;-1.486;2022-12-07T09:53:15;3.75;;;1.20;;
54561;SDS011;40456;53.358;-1.486;2022-12-07T09:55:45;1.75;;;0.68;;
54561;SDS011;40456;53.358;-1.486;2022-12-07T09:58:22;1.15;;;0.73;;
54561;SDS011;40456;53.358;-1.486;2022-12-07T10:00:50;1.25;;;0.52;;
54561;SDS011;40456;53.358;-1.486;2022-12-07T10:03:18;2.97;;;0.70;;
54561;SDS011;40456;53.358;-1.486;2022-12-07T10:05:47;1.27;;;0.47;;
54561;SDS011;40456;53.358;-1.486;2022-12-07T10:08:14;1.05;;;0.57;;
54561;SDS011;40456;53.358;-1.486;2022-12-07T10:10:43;1.25;;;0.32;;
54561;SDS011;40456;53.358;-1.486;2022-12-07T10:13:14;2.67;;;0.60;;
54561;SDS011;40456;53.358;-1.486;2022-12-07T10:25:53;1.40;;;0.60;;
54561;SDS011;40456;53.358;-1.486;2022-12-07T10:28:20;1.52;;;0.28;;
54561;SDS011;40456;53.358;-1.486;2022-12-07T10:35:55;1.35;;;0.55;;
54561;SDS011;40456;53.358;-1.486;2022-12-07T10:38:21;1.95;;;0.55;;
54561;SDS011;40456;53.358;-1.486;2022-12-07T10:40:46;1.77;;;0.50;;
54561;SDS011;40456;53.358;-1.486;2022-12-07T10:48:20;0.90;;;0.40;;
54561;SDS011;40456;53.358;-1.486;2022-12-07T10:53:40;2.15;;;0.70;;
54561;SDS011;40456;53.358;-1.486;2022-12-07T10:56:19;0.82;;;0.77;;
54561;SDS011;40456;53.358;-1.486;2022-12-07T10:59:37;1.77;;;0.70;;
54561;SDS011;40456;53.358;-1.486;2022-12-07T11:01:41;0.88;;;0.52;;
54561;SDS011;40456;53.358;-1.486;2022-12-07T11:23:04;2.50;;;0.70;;
54561;SDS011;40456;53.358;-1.486;2022-12-07T11:26:00;1.15;;;0.50;;
54561;SDS011;40456;53.358;-1.486;2022-12-07T11:34:36;0.30;;;0.30;;
54561;SDS011;40456;53.358;-1.486;2022-12-07T11:37:10;1.13;;;0.60;;
54561;SDS011;40456;53.358;-1.486;2022-12-07T11:39:52;2.05;;;0.63;;
54561;SDS011;40456;53.358;-1.486;2022-12-07T11:42:21;1.05;;;0.50;;
54561;SDS011;40456;53.358;-1.486;2022-12-07T11:44:50;0.73;;;0.43;;
54561;SDS011;40456;53.358;-1.486;2022-12-07T11:52:55;0.63;;;0.43;;
54561;SDS011;40456;53.358;-1.486;2022-12-07T11:55:40;2.17;;;0.60;;
54561;SDS011;40456;53.358;-1.486;2022-12-07T11:58:33;2.83;;;0.80;;
54561;SDS011;40456;53.358;-1.486;2022-12-07T12:06:31;1.20;;;0.55;;
54561;SDS011;40456;53.358;-1.486;2022-12-07T12:20:00;2.20;;;0.65;;
54561;SDS011;40456;53.358;-1.486;2022-12-07T12:22:38;2.58;;;0.60;;
54561;SDS011;40456;53.358;-1.486;2022-12-07T12:25:07;1.15;;;0.70;;
54561;SDS011;40456;53.358;-1.486;2022-12-07T12:27:59;1.17;;;0.60;;
54561;SDS011;40456;53.358;-1.486;2022-12-07T12:30:26;1.65;;;0.68;;
54561;SDS011;40456;53.358;-1.486;2022-12-07T12:33:01;2.27;;;0.53;;
54561;SDS011;40456;53.358;-1.486;2022-12-07T12:35:37;0.70;;;0.50;;
54561;SDS011;40456;53.358;-1.486;2022-12-07T12:40:51;1.90;;;1.10;;
54561;SDS011;40456;53.358;-1.486;2022-12-07T12:51:41;2.30;;;0.52;;
54561;SDS011;40456;53.358;-1.486;2022-12-07T12:54:13;1.23;;;0.50;;
54561;SDS011;40456;53.358;-1.486;2022-12-07T13:02:31;1.27;;;0.43;;
54561;SDS011;40456;53.358;-1.486;2022-12-07T13:07:59;0.95;;;0.63;;
54561;SDS011;40456;53.358;-1.486;2022-12-07T13:15:41;1.10;;;0.30;;
54561;SDS011;40456;53.358;-1.486;2022-12-07T13:18:23;2.15;;;0.55;;
54561;SDS011;40456;53.358;-1.486;2022-12-07T13:20:56;1.25;;;0.57;;
54561;SDS011;40456;53.358;-1.486;2022-12-07T13:24:07;0.80;;;0.30;;
54561;SDS011;40456;53.358;-1.486;2022-12-07T13:26:23;1.92;;;0.52;;
54561;SDS011;40456;53.358;-1.486;2022-12-07T13:29:04;1.00;;;0.30;;
54561;SDS011;40456;53.358;-1.486;2022-12-07T13:31:50;1.83;;;0.40;;
54561;SDS011;40456;53.358;-1.486;2022-12-07T13:34:33;1.45;;;0.60;;
54561;SDS011;40456;53.358;-1.486;2022-12-07T13:37:01;1.95;;;0.50;;
54561;SDS011;40456;53.358;-1.486;2022-12-07T13:39:32;0.82;;;0.50;;
54561;SDS011;40456;53.358;-1.486;2022-12-07T13:41:58;0.88;;;0.63;;
54561;SDS011;40456;53.358;-1.486;2022-12-07T13:44:26;4.00;;;1.02;;
54561;SDS011;40456;53.358;-1.486;2022-12-07T13:46:58;0.55;;;0.50;;
54561;SDS011;40456;53.358;-1.486;2022-12-07T13:49:48;1.80;;;0.35;;
54561;SDS011;40456;53.358;-1.486;2022-12-07T13:52:20;3.22;;;0.68;;
54561;SDS011;40456;53.358;-1.486;2022-12-07T13:54:59;3.83;;;0.85;;
54561;SDS011;40456;53.358;-1.486;2022-12-07T13:57:28;3.13;;;0.77;;
54561;SDS011;40456;53.358;-1.486;2022-12-07T13:59:55;2.60;;;0.47;;
54561;SDS011;40456;53.358;-1.486;2022-12-07T14:02:23;1.13;;;0.70;;
54561;SDS011;40456;53.358;-1.486;2022-12-07T14:04:51;0.73;;;0.52;;
54561;SDS011;40456;53.358;-1.486;2022-12-07T14:09:53;0.70;;;0.30;;
54561;SDS011;40456;53.358;-1.486;2022-12-07T14:12:20;3.47;;;0.82;;
54561;SDS011;40456;53.358;-1.486;2022-12-07T14:14:48;0.88;;;0.55;;
54561;SDS011;40456;53.358;-1.486;2022-12-07T14:17:18;4.18;;;0.50;;
54561;SDS011;40456;53.358;-1.486;2022-12-07T14:19:49;3.33;;;0.80;;
54561;SDS011;40456;53.358;-1.486;2022-12-07T14:24:59;2.40;;;0.68;;
54561;SDS011;40456;53.358;-1.486;2022-12-07T14:27:29;3.33;;;1.58;;
54561;SDS011;40456;53.358;-1.486;2022-12-07T14:29:58;2.97;;;1.40;;
54561;SDS011;40456;53.358;-1.486;2022-12-07T14:32:25;1.83;;;1.20;;
54561;SDS011;40456;53.358;-1.486;2022-12-07T14:35:00;3.35;;;1.05;;
54561;SDS011;40456;53.358;-1.486;2022-12-07T14:37:28;2.30;;;1.00;;
54561;SDS011;40456;53.358;-1.486;2022-12-07T14:39:54;2.05;;;1.20;;
54561;SDS011;40456;53.358;-1.486;2022-12-07T14:42:20;1.35;;;0.75;;
54561;SDS011;40456;53.358;-1.486;2022-12-07T14:44:46;1.38;;;0.90;;
54561;SDS011;40456;53.358;-1.486;2022-12-07T14:47:11;1.52;;;0.85;;
54561;SDS011;40456;53.358;-1.486;2022-12-07T14:49:37;3.17;;;1.15;;
54561;SDS011;40456;53.358;-1.486;2022-12-07T14:52:02;3.60;;;0.85;;
54561;SDS011;40456;53.358;-1.486;2022-12-07T14:54:30;2.53;;;0.95;;
54561;SDS011;40456;53.358;-1.486;2022-12-07T14:56:56;2.00;;;0.98;;
54561;SDS011;40456;53.358;-1.486;2022-12-07T14:59:22;2.25;;;1.25;;
54561;SDS011;40456;53.358;-1.486;2022-12-07T15:01:47;1.45;;;0.90;;
54561;SDS011;40456;53.358;-1.486;2022-12-07T15:04:12;1.65;;;1.10;;
54561;SDS011;40456;53.358;-1.486;2022-12-07T15:06:38;1.85;;;1.10;;
54561;SDS011;40456;53.358;-1.486;2022-12-07T15:09:04;2.42;;;1.42;;
54561;SDS011;40456;53.358;-1.486;2022-12-07T15:11:29;2.45;;;1.35;;
54561;SDS011;40456;53.358;-1.486;2022-12-07T15:13:55;1.45;;;1.05;;
54561;SDS011;40456;53.358;-1.486;2022-12-07T15:16:39;3.00;;;1.20;;
54561;SDS011;40456;53.358;-1.486;2022-12-07T15:19:16;1.90;;;1.55;;
54561;SDS011;40456;53.358;-1.486;2022-12-07T15:21:43;3.85;;;1.98;;
54561;SDS011;40456;53.358;-1.486;2022-12-07T15:24:11;3.22;;;1.80;;
54561;SDS011;40456;53.358;-1.486;2022-12-07T15:26:38;3.78;;;1.58;;
54561;SDS011;40456;53.358;-1.486;2022-12-07T15:29:04;3.55;;;1.80;;
54561;SDS011;40456;53.358;-1.486;2022-12-07T15:31:29;2.08;;;1.52;;
54561;SDS011;40456;53.358;-1.486;2022-12-07T15:33:55;4.03;;;1.70;;
54561;SDS011;40456;53.358;-1.486;2022-12-07T15:36:21;3.05;;;1.63;;
54561;SDS011;40456;53.358;-1.486;2022-12-07T15:38:48;2.25;;;1.60;;
54561;SDS011;40456;53.358;-1.486;2022-12-07T15:41:14;3.63;;;1.45;;
54561;SDS011;40456;53.358;-1.486;2022-12-07T15:43:39;3.45;;;1.80;;
54561;SDS011;40456;53.358;-1.486;2022-12-07T15:46:28;2.65;;;1.90;;
54561;SDS011;40456;53.358;-1.486;2022-12-07T15:51:22;1.85;;;1.65;;
54561;SDS011;40456;53.358;-1.486;2022-12-07T15:53:48;4.72;;;1.70;;
54561;SDS011;40456;53.358;-1.486;2022-12-07T15:56:14;3.25;;;1.67;;
54561;SDS011;40456;53.358;-1.486;2022-12-07T15:58:39;2.45;;;1.45;;
54561;SDS011;40456;53.358;-1.486;2022-12-07T16:01:15;3.38;;;1.85;;
54561;SDS011;40456;53.358;-1.486;2022-12-07T16:03:42;4.07;;;1.75;;
54561;SDS011;40456;53.358;-1.486;2022-12-07T16:06:09;2.65;;;1.83;;
54561;SDS011;40456;53.358;-1.486;2022-12-07T16:08:34;2.05;;;1.67;;
54561;SDS011;40456;53.358;-1.486;2022-12-07T16:11:00;2.53;;;1.67;;
54561;SDS011;40456;53.358;-1.486;2022-12-07T16:13:28;4.68;;;1.70;;
54561;SDS011;40456;53.358;-1.486;2022-12-07T16:15:54;3.55;;;2.13;;
54561;SDS011;40456;53.358;-1.486;2022-12-07T16:18:20;2.22;;;1.73;;
54561;SDS011;40456;53.358;-1.486;2022-12-07T16:20:47;2.22;;;1.50;;
54561;SDS011;40456;53.358;-1.486;2022-12-07T16:23:13;4.78;;;1.55;;
54561;SDS011;40456;53.358;-1.486;2022-12-07T16:25:39;7.00;;;1.80;;
54561;SDS011;40456;53.358;-1.486;2022-12-07T16:28:11;2.70;;;1.77;;
54561;SDS011;40456;53.358;-1.486;2022-12-07T16:30:40;2.78;;;1.70;;
54561;SDS011;40456;53.358;-1.486;2022-12-07T16:33:05;3.65;;;1.85;;
54561;SDS011;40456;53.358;-1.486;2022-12-07T16:35:34;3.35;;;2.15;;
54561;SDS011;40456;53.358;-1.486;2022-12-07T16:38:05;2.45;;;1.83;;
54561;SDS011;40456;53.358;-1.486;2022-12-07T16:40:31;5.20;;;2.28;;
54561;SDS011;40456;53.358;-1.486;2022-12-07T16:42:56;2.58;;;1.80;;
54561;SDS011;40456;53.358;-1.486;2022-12-07T16:45:22;3.88;;;2.08;;
54561;SDS011;40456;53.358;-1.486;2022-12-07T16:47:47;4.22;;;2.35;;
54561;SDS011;40456;53.358;-1.486;2022-12-07T16:50:12;5.15;;;1.85;;
54561;SDS011;40456;53.358;-1.486;2022-12-07T16:52:38;4.53;;;2.03;;
54561;SDS011;40456;53.358;-1.486;2022-12-07T16:55:03;3.58;;;1.70;;
54561;SDS011;40456;53.358;-1.486;2022-12-07T16:57:29;3.38;;;1.95;;
54561;SDS011;40456;53.358;-1.486;2022-12-07T16:59:55;2.80;;;1.55;;